Portada
METAR-TAF:

METAR-TAF

Aeroports :

Kunming, Xina

latitud: 25-01N, longitud: 102-41E, altitud: 1892 m

Observació

L'informe es va fer fa 47 minuts, a les 12:00 UTC
Vent 10 kt del Sud-Oest
Temperatura 9°C
Humitat 61%
Pressió 1016 hPa
Visibilitat 10 km o més
sense núvols per sota de 1500 mi sense presència de cumulonimbus.

METAR: ZPPP 191200Z 22005MPS CAVOK 09/02 Q1016 NOSIG

Hora: 20:47 (12:47 UTC)

Pronòstic

L'informe es va fer fa 3 hores i 41 minuts, a les 09:06 UTC
Pronòstic vàlid del 19 a les 12 UTC al 20 a les 12 UTC
Vent 12 kt del Sud-Oest
Visibilitat 10 km o més
Núvols disperses a una alçada de 2600 ft
Evolucionant progressivament
l' 20 a les 04 UTC al 20 a les 05 UTC
Vent 21 kt del Sud-Oest amb ràfegues de 33 kt
Evolucionant progressivament
l' 20 a les 09 UTC al 20 a les 10 UTC
Vent 12 kt del Sud-Oest

TAF: ZPPP 190906Z 1912/2012 22006MPS 9999 SCT026 TX15/2008Z TN04/1923Z BECMG 2004/2005 22011G17MPS BECMG 2009/2010 22006MPS

Observacions i pronòstics meteorològics de més de 4000 aeroports (METAR i TAF).

Les estacions disponibles són els punts grocs i vermells al mapa.

Posi el ratolí al punt desitjat per veure el nom de l'estació.

Feu clic per veure les observacions i els pronòstics meteorològics.

Per canviar el mapa: feu clic els botons verds amb una creu de color negre per apropar; al botó verd amb un guió per allunyar la imatge; o en les fletxes verdes per a mapes adjacents.


METAR-TAF: